Gaines County Airport


Codes: KGNC/
Name: Gaines County Airport
City: Seminole
Country: United States
Elevation: 3315 ft.

Photos at Gaines County Airport


   Photos courtesy of SpottingLog. You can add your own sightings and photos by signing up for a free trial today.



No photos found.

Weather at Gaines County Airport


Time (UTC)DescriptionTempratureWindCloud coverageVisibilityPressureHumidity
17-Jun-2024 06:00Clear Sky31°C22 mph, S0%10000m1008hPa38%
17-Jun-2024 09:00Clear Sky29°C22 mph, S0%10000m1007hPa40%
17-Jun-2024 12:00Clear Sky23°C20 mph, S0%10000m1006hPa72%
17-Jun-2024 15:00Clear Sky27°C20 mph, S0%10000m1005hPa57%
17-Jun-2024 18:00Clear Sky34°C20 mph, S0%10000m1003hPa30%
17-Jun-2024 21:00Clear Sky37°C22 mph, S0%10000m1000hPa21%
18-Jun-2024 00:00Clear Sky36°C25 mph, SE0%10000m999hPa24%
18-Jun-2024 03:00Clear Sky31°C25 mph, SE1%10000m1001hPa35%
18-Jun-2024 06:00Clear Sky30°C25 mph, S1%10000m1003hPa36%
18-Jun-2024 09:00Clear Sky24°C25 mph, S3%10000m1004hPa67%
18-Jun-2024 12:00Clear Sky22°C20 mph, S6%10000m1005hPa82%
18-Jun-2024 15:00Scattered Clouds26°C20 mph, S35%10000m1006hPa61%
18-Jun-2024 18:00Few Clouds33°C18 mph, S18%10000m1004hPa31%
18-Jun-2024 21:00Clear Sky36°C18 mph, S0%10000m1002hPa21%
19-Jun-2024 00:00Clear Sky35°C20 mph, SE0%10000m1002hPa25%
19-Jun-2024 03:00Clear Sky31°C18 mph, SE0%10000m1005hPa39%
19-Jun-2024 06:00Clear Sky27°C20 mph, SE0%10000m1008hPa48%
19-Jun-2024 09:00Clear Sky23°C18 mph, SE0%10000m1010hPa76%
19-Jun-2024 12:00Few Clouds21°C13 mph, SE11%10000m1012hPa84%
19-Jun-2024 15:00Broken Clouds23°C16 mph, SE59%10000m1013hPa71%
19-Jun-2024 18:00Broken Clouds28°C13 mph, E69%10000m1013hPa49%
19-Jun-2024 21:00Few Clouds28°C22 mph, E20%10000m1013hPa49%
20-Jun-2024 00:00Light Rain23°C22 mph, E63%10000m1013hPa72%
20-Jun-2024 03:00Light Rain22°C20 mph, E100%10000m1016hPa75%
20-Jun-2024 06:00Light Rain20°C18 mph, E100%10000m1018hPa82%
20-Jun-2024 09:00Light Rain20°C16 mph, E100%10000m1016hPa84%
20-Jun-2024 12:00Light Rain19°C18 mph, E100%10000m1017hPa90%
20-Jun-2024 15:00Light Rain20°C18 mph, E100%10000m1019hPa90%
20-Jun-2024 18:00Light Rain20°C20 mph, E100%10000m1018hPa82%
20-Jun-2024 21:00Light Rain19°C22 mph, E100%7195m1017hPa88%
21-Jun-2024 00:00Heavy Intensity Rain18°C22 mph, NE100%5684m1016hPa92%
21-Jun-2024 03:00Moderate Rain19°C25 mph, E100%10000m1016hPa92%
21-Jun-2024 06:00Moderate Rain20°C22 mph, SE100%6921m1016hPa95%
21-Jun-2024 09:00Moderate Rain20°C20 mph, SE100%10000m1016hPa88%
21-Jun-2024 12:00Light Rain20°C18 mph, SE100%10000m1017hPa91%
21-Jun-2024 15:00Light Rain20°C18 mph, SE100%10000m1018hPa87%
21-Jun-2024 18:00Light Rain23°C16 mph, SE100%10000m1018hPa73%
21-Jun-2024 21:00Light Rain26°C16 mph, SE100%10000m1016hPa59%
22-Jun-2024 00:00Light Rain25°C13 mph, SE100%10000m1015hPa63%
22-Jun-2024 03:00Light Rain24°C11 mph, SE98%10000m1016hPa72%